Terminal Aerodrome Forecast
Issued by NWS Tulsa, OK

Current Version | Previous Version | Text Only | Print | Product List | Glossary On
Versions: 1 2 3 4 5 6 7 8 9 10 11 12 13 14 15 16
000
FTUS44 KTSA 211100
TAFTUL
TAF
KTUL 211136Z 2112/2212 35006KT P6SM VCSH BKN050 BKN090
     FM211600 01012KT P6SM SCT040 SCT100
     FM220400 01005KT P6SM SKC=

USA.gov is the U.S. government's official web portal to all federal, state and local government web resources and services.